Yankee Lake, Ohio
Current Conditions -  °F | °C
As of 2:51 PM on Thursday 23 Oct 2014 (Local Time) from KYNG Reporting Station
Broken Clouds Broken Clouds  
Wind Chill: 60°   Ceiling: 3500
Heat Index: 60°   Visibility: 10mi
Dew Point: 43°   Wind: 13mph
Humidity: 53%   Direction: 360°N
Pressure: 30.11"   Gusts: 24mph
Location:  41.2384°N, 80.5799°W
Report Text: KYNG 231851Z 36011G21KT 10SM BKN035 16/06 A3011 RMK AO2 SLP198 T01560061
Loading
Personal Weather Stations






























Interactive Weather Map
Tropical Storm Tracking
New forecast layout! Learn more

10-Day Weather Forecast

Advertisements
Track Severe Weather on mobile